createdAt,value
2019-03-25T00:02:16.278Z,101190.88
2019-03-25T00:04:44.960Z,101188.59
2019-03-25T00:07:13.752Z,101186.52
2019-03-25T00:09:42.543Z,101186.66
2019-03-25T00:12:11.381Z,101183.99
2019-03-25T00:14:40.014Z,101174.84
2019-03-25T00:17:08.698Z,101173.33
2019-03-25T00:19:37.283Z,101165.54
2019-03-25T00:22:06.071Z,101167.75
2019-03-25T00:24:38.995Z,101164.98
2019-03-25T00:27:05.081Z,101160.78
2019-03-25T00:29:33.767Z,101159.44
2019-03-25T00:32:02.456Z,101155.59
2019-03-25T00:34:31.139Z,101157.94
2019-03-25T00:36:59.823Z,101156.72
2019-03-25T00:39:28.399Z,101153.33
2019-03-25T00:41:57.092Z,101148.74
2019-03-25T00:44:25.777Z,101147.28
2019-03-25T00:46:54.462Z,101144.80
2019-03-25T00:49:23.038Z,101136.19
2019-03-25T00:51:51.733Z,101129.77
2019-03-25T00:54:20.418Z,101131.02
2019-03-25T00:56:49.104Z,101122.48
2019-03-25T00:59:17.682Z,101111.37
2019-03-25T01:01:46.372Z,101106.39
2019-03-25T01:04:15.062Z,101105.69
2019-03-25T01:06:44.153Z,101090.91
2019-03-25T01:09:12.948Z,101078.36
2019-03-25T01:11:48.919Z,101073.36
2019-03-25T01:14:12.061Z,101069.03
2019-03-25T01:16:40.740Z,101064.09
2019-03-25T01:19:09.528Z,101061.98
2019-03-25T01:21:38.420Z,101064.28
2019-03-25T01:24:07.109Z,101058.03
2019-03-25T01:26:35.792Z,101050.42
2019-03-25T01:29:04.559Z,101040.05
2019-03-25T01:31:33.234Z,101038.19
2019-03-25T01:34:01.851Z,101045.72
2019-03-25T01:36:30.639Z,101034.39
2019-03-25T01:38:59.427Z,101031.08
2019-03-25T01:41:28.211Z,101036.50
2019-03-25T01:43:56.897Z,101020.23
2019-03-25T01:46:25.685Z,101013.05
2019-03-25T01:48:54.478Z,101009.95
2019-03-25T01:51:23.261Z,101008.42
2019-03-25T01:53:52.058Z,101004.66
2019-03-25T01:56:20.837Z,100998.30
2019-03-25T01:58:49.628Z,100995.48
2019-03-25T02:01:18.312Z,100995.48
2019-03-25T02:03:47.100Z,100988.40
2019-03-25T02:06:15.787Z,100984.56
2019-03-25T02:08:44.478Z,100979.81
2019-03-25T02:11:13.164Z,100980.34
2019-03-25T02:13:41.744Z,100979.86
2019-03-25T02:16:10.528Z,100976.39
2019-03-25T02:18:39.111Z,100965.63
2019-03-25T02:21:09.642Z,100969.70
2019-03-25T02:23:38.333Z,100969.28
2019-03-25T02:26:07.115Z,100959.91
2019-03-25T02:28:35.801Z,100957.88
2019-03-25T02:31:04.594Z,100952.88
2019-03-25T02:33:33.279Z,100946.59
2019-03-25T02:36:01.960Z,100943.58
2019-03-25T02:38:30.648Z,100935.68
2019-03-25T02:40:59.269Z,100928.34
2019-03-25T02:43:28.123Z,100923.22
2019-03-25T02:45:56.908Z,100920.45
2019-03-25T02:48:25.597Z,100915.71
2019-03-25T02:50:54.177Z,100915.97
2019-03-25T02:53:22.861Z,100911.16
2019-03-25T02:55:51.478Z,100904.47
2019-03-25T02:58:20.139Z,100905.44
2019-03-25T03:00:48.921Z,100892.38
2019-03-25T03:03:17.607Z,100888.02
2019-03-25T03:05:46.290Z,100890.20
2019-03-25T03:08:15.288Z,100883.55
2019-03-25T03:10:44.073Z,100875.46
2019-03-25T03:13:12.762Z,100875.42
2019-03-25T03:15:41.458Z,100871.08
2019-03-25T03:18:10.848Z,100870.55
2019-03-25T03:20:39.427Z,100862.27
2019-03-25T03:23:08.115Z,100864.27
2019-03-25T03:25:36.803Z,100862.37
2019-03-25T03:28:05.588Z,100853.81
2019-03-25T03:30:34.276Z,100860.72
2019-03-25T03:33:02.956Z,100850.85
2019-03-25T03:35:31.665Z,100836.23
2019-03-25T03:38:00.336Z,100840.00
2019-03-25T03:40:29.020Z,100837.58
2019-03-25T03:42:57.704Z,100830.20
2019-03-25T03:45:26.287Z,100829.06
2019-03-25T03:47:54.983Z,100823.43
2019-03-25T03:50:25.788Z,100819.61
2019-03-25T03:52:54.609Z,100819.08
2019-03-25T03:55:23.506Z,100814.05
2019-03-25T03:57:52.992Z,100818.41
2019-03-25T04:00:32.201Z,100811.14
2019-03-25T04:03:01.276Z,100802.52
2019-03-25T04:05:29.906Z,100807.27
2019-03-25T04:07:58.710Z,100799.39
2019-03-25T04:10:27.787Z,100788.62
2019-03-25T04:12:57.497Z,100778.74
2019-03-25T04:15:28.436Z,100775.84
2019-03-25T04:17:57.489Z,100769.76
2019-03-25T04:20:26.114Z,100769.16
2019-03-25T04:22:54.833Z,100764.66
2019-03-25T04:25:23.385Z,100750.09
2019-03-25T04:27:52.075Z,100744.44
2019-03-25T04:30:20.762Z,100740.56
2019-03-25T04:32:49.444Z,100732.49
2019-03-25T04:35:18.172Z,100744.66
2019-03-25T04:37:46.912Z,100734.05
2019-03-25T04:40:15.599Z,100726.77
2019-03-25T04:42:44.285Z,100727.00
2019-03-25T04:45:13.176Z,100713.29
2019-03-25T04:47:41.863Z,100708.19
2019-03-25T04:50:10.956Z,100710.73
2019-03-25T04:52:39.644Z,100710.20
2019-03-25T04:55:08.328Z,100704.94
2019-03-25T04:57:37.116Z,100702.20
2019-03-25T05:00:06.915Z,100690.79
2019-03-25T05:02:35.614Z,100690.79
2019-03-25T05:05:05.326Z,100683.22
2019-03-25T05:07:34.214Z,100685.13
2019-03-25T05:10:03.110Z,100681.88
2019-03-25T05:12:31.794Z,100672.61
2019-03-25T05:15:00.380Z,100666.89
2019-03-25T05:17:29.162Z,100665.83
2019-03-25T05:19:57.848Z,100657.91
2019-03-25T05:22:26.531Z,100657.40
2019-03-25T05:24:55.117Z,100660.55
2019-03-25T05:27:23.802Z,100662.66
2019-03-25T05:29:52.385Z,100652.88
2019-03-25T05:32:21.176Z,100645.55
2019-03-25T05:34:49.871Z,100645.72
2019-03-25T05:37:18.651Z,100645.20
2019-03-25T05:39:48.167Z,100640.25
2019-03-25T05:42:16.824Z,100632.56
2019-03-25T05:44:45.423Z,100637.05
2019-03-25T05:47:14.208Z,100632.16
2019-03-25T05:49:42.793Z,100637.87
2019-03-25T05:52:11.479Z,100630.39
2019-03-25T05:54:40.040Z,100625.71
2019-03-25T05:57:08.851Z,100627.44
2019-03-25T05:59:37.435Z,100626.45
2019-03-25T06:02:06.224Z,100632.40
2019-03-25T06:04:34.908Z,100623.91
2019-03-25T06:07:03.703Z,100625.72
2019-03-25T06:09:32.491Z,100632.11
2019-03-25T06:12:01.185Z,100635.48
2019-03-25T06:14:29.964Z,100637.30
2019-03-25T06:16:58.640Z,100638.88
2019-03-25T06:19:27.336Z,100641.14
2019-03-25T06:21:56.021Z,100634.75
2019-03-25T06:24:24.808Z,100637.09
2019-03-25T06:26:53.598Z,100629.92
2019-03-25T06:29:22.185Z,100633.39
2019-03-25T06:31:50.840Z,100624.41
2019-03-25T06:34:19.452Z,100628.94
2019-03-25T06:36:48.237Z,100636.83
2019-03-25T06:39:16.927Z,100635.68
2019-03-25T06:41:45.608Z,100629.99
2019-03-25T06:44:14.396Z,100635.95
2019-03-25T06:46:42.983Z,100635.49
2019-03-25T06:49:11.767Z,100633.28
2019-03-25T06:51:40.557Z,100635.54
2019-03-25T06:54:09.343Z,100643.91
2019-03-25T06:56:38.029Z,100643.41
2019-03-25T06:59:06.817Z,100652.39
2019-03-25T07:01:35.507Z,100648.53
2019-03-25T07:04:04.190Z,100653.42
2019-03-25T07:06:32.774Z,100650.56
2019-03-25T07:09:01.439Z,100652.06
2019-03-25T07:11:30.554Z,100647.12
2019-03-25T07:13:59.345Z,100647.67
2019-03-25T07:16:28.027Z,100652.77
2019-03-25T07:18:56.815Z,100647.08
2019-03-25T07:21:25.607Z,100657.16
2019-03-25T07:23:54.390Z,100647.51
2019-03-25T07:26:23.177Z,100654.44
2019-03-25T07:28:51.865Z,100648.57
2019-03-25T07:31:20.654Z,100644.29
2019-03-25T07:33:49.336Z,100646.28
2019-03-25T07:36:18.124Z,100654.41
2019-03-25T07:38:46.814Z,100653.26
2019-03-25T07:41:17.135Z,100655.88
2019-03-25T07:43:45.923Z,100659.21
2019-03-25T07:46:15.119Z,100652.50
2019-03-25T07:48:43.805Z,100656.16
2019-03-25T07:51:12.387Z,100667.71
2019-03-25T07:53:41.177Z,100660.48
2019-03-25T07:56:09.783Z,100669.26
2019-03-25T07:58:38.446Z,100665.50
2019-03-25T08:01:07.038Z,100671.03
2019-03-25T08:03:35.712Z,100672.10
2019-03-25T08:06:04.413Z,100679.89
2019-03-25T08:08:33.093Z,100673.92
2019-03-25T08:11:01.774Z,100681.44
2019-03-25T08:13:30.456Z,100675.42
2019-03-25T08:15:59.139Z,100680.38
2019-03-25T08:18:27.827Z,100685.33
2019-03-25T08:20:56.409Z,100681.99
2019-03-25T08:23:25.095Z,100679.78
2019-03-25T08:25:53.784Z,100687.17
2019-03-25T08:28:22.467Z,100684.21
2019-03-25T08:30:51.050Z,100681.94
2019-03-25T08:33:19.735Z,100685.39
2019-03-25T08:35:49.446Z,100684.50
2019-03-25T08:38:18.232Z,100686.27
2019-03-25T08:40:46.815Z,100690.38
2019-03-25T08:43:15.501Z,100699.09
2019-03-25T08:45:44.076Z,100701.98
2019-03-25T08:48:12.781Z,100700.48
2019-03-25T08:50:41.762Z,100698.15
2019-03-25T08:53:10.347Z,100702.53
2019-03-25T08:55:39.037Z,100705.14
2019-03-25T08:58:12.327Z,100709.41
2019-03-25T09:00:38.354Z,100705.72
2019-03-25T09:03:07.036Z,100702.04
2019-03-25T09:05:35.926Z,100713.54
2019-03-25T09:08:04.611Z,100712.33
2019-03-25T09:10:33.303Z,100722.17
2019-03-25T09:13:02.086Z,100721.27
2019-03-25T09:15:30.873Z,100724.36
2019-03-25T09:17:59.660Z,100731.16
2019-03-25T09:20:28.300Z,100730.64
2019-03-25T09:22:56.931Z,100735.55
2019-03-25T09:25:25.619Z,100734.86
2019-03-25T09:27:54.403Z,100739.86
2019-03-25T09:30:53.611Z,100744.25
2019-03-25T09:33:22.599Z,100744.20
2019-03-25T09:35:52.096Z,100750.41
2019-03-25T09:38:20.894Z,100750.02
2019-03-25T09:40:49.583Z,100751.25
2019-03-25T09:43:18.266Z,100741.37
2019-03-25T09:45:47.362Z,100746.30
2019-03-25T09:48:16.046Z,100747.48
2019-03-25T09:50:44.729Z,100749.70
2019-03-25T09:53:13.723Z,100755.70
2019-03-25T09:55:42.407Z,100757.09
2019-03-25T09:58:11.099Z,100754.46
2019-03-25T10:00:39.675Z,100761.78
2019-03-25T10:03:08.370Z,100754.92
2019-03-25T10:05:37.253Z,100761.02
2019-03-25T10:08:06.149Z,100755.91
2019-03-25T10:10:34.932Z,100761.01
2019-03-25T10:13:03.626Z,100761.25
2019-03-25T10:15:32.200Z,100769.77
2019-03-25T10:18:00.988Z,100766.36
2019-03-25T10:20:29.575Z,100771.28
2019-03-25T10:22:58.258Z,100771.52
2019-03-25T10:25:26.841Z,100774.25
2019-03-25T10:27:55.530Z,100784.78
2019-03-25T10:30:24.725Z,100788.24
2019-03-25T10:32:53.513Z,100788.75
2019-03-25T10:35:22.199Z,100790.00
2019-03-25T10:37:51.079Z,100789.31
2019-03-25T10:40:19.775Z,100789.94
2019-03-25T10:42:48.666Z,100790.13
2019-03-25T10:45:19.091Z,100795.62
2019-03-25T10:47:48.605Z,100791.31
2019-03-25T10:50:17.384Z,100796.13
2019-03-25T10:52:46.173Z,100802.05
2019-03-25T10:55:15.374Z,100792.75
2019-03-25T10:57:44.055Z,100794.95
2019-03-25T11:00:14.689Z,100794.13
2019-03-25T11:02:43.373Z,100795.75
2019-03-25T11:05:13.088Z,100797.70
2019-03-25T11:10:12.257Z,100801.78
2019-03-25T11:12:40.993Z,100800.78
2019-03-25T11:15:11.850Z,100799.69
2019-03-25T11:17:40.611Z,100795.88
2019-03-25T11:20:10.634Z,100799.50
2019-03-25T11:22:39.822Z,100801.38
2019-03-25T11:25:10.863Z,100790.11
2019-03-25T11:27:39.548Z,100796.09
2019-03-25T11:30:10.296Z,100795.68
2019-03-25T11:32:39.076Z,100794.34
2019-03-25T11:35:09.467Z,100793.73
2019-03-25T11:37:38.182Z,100796.30
2019-03-25T11:40:11.090Z,100803.06
2019-03-25T11:42:39.855Z,100805.19
2019-03-25T11:45:09.565Z,100819.64
2019-03-25T11:47:38.368Z,100818.32
2019-03-25T11:50:08.160Z,100821.25
2019-03-25T11:52:37.682Z,100810.00
2019-03-25T11:55:06.871Z,100818.77
2019-03-25T11:57:35.759Z,100819.20
2019-03-25T12:00:07.249Z,100820.34
2019-03-25T12:02:35.894Z,100821.88
2019-03-25T12:05:06.834Z,100828.75
2019-03-25T12:07:35.626Z,100824.16
2019-03-25T12:10:05.835Z,100827.47
2019-03-25T12:12:34.527Z,100823.84
2019-03-25T12:15:04.034Z,100818.26
2019-03-25T12:17:32.718Z,100819.36
2019-03-25T12:20:01.411Z,100815.31
2019-03-25T12:22:30.193Z,100811.66
2019-03-25T12:24:58.778Z,100805.27
2019-03-25T12:27:27.601Z,100808.21
2019-03-25T12:29:56.205Z,100811.18
2019-03-25T12:32:24.893Z,100807.28
2019-03-25T12:34:53.523Z,100816.71
2019-03-25T12:37:22.204Z,100823.51
2019-03-25T12:39:50.993Z,100814.53
2019-03-25T12:42:19.575Z,100807.53
2019-03-25T12:44:48.158Z,100803.72
2019-03-25T12:47:16.949Z,100807.99
2019-03-25T12:49:45.620Z,100812.75
2019-03-25T12:52:14.318Z,100812.56
2019-03-25T12:54:43.030Z,100836.65
2019-03-25T12:57:11.689Z,100856.79
2019-03-25T12:59:41.585Z,100848.42
2019-03-25T13:02:11.313Z,100855.59
2019-03-25T13:04:39.898Z,100860.13
2019-03-25T13:07:08.549Z,100842.39
2019-03-25T13:09:37.166Z,100833.31
2019-03-25T13:12:05.955Z,100833.98
2019-03-25T13:14:35.297Z,100831.97
2019-03-25T13:17:04.247Z,100834.09
2019-03-25T13:19:32.921Z,100831.68
2019-03-25T13:22:01.618Z,100833.38
2019-03-25T13:24:30.201Z,100826.52
2019-03-25T13:26:58.851Z,100836.80
2019-03-25T13:29:27.470Z,100839.08
2019-03-25T13:31:56.158Z,100846.55
2019-03-25T13:34:24.829Z,100851.59
2019-03-25T13:36:53.522Z,100851.36
2019-03-25T13:39:22.316Z,100856.05
2019-03-25T13:41:51.000Z,100862.89
2019-03-25T13:44:19.545Z,100871.70
2019-03-25T13:46:48.270Z,100876.63
2019-03-25T13:49:16.852Z,100899.02
2019-03-25T13:51:45.528Z,100894.02
2019-03-25T13:54:14.123Z,100910.36
2019-03-25T13:56:42.808Z,100904.88
2019-03-25T13:59:11.460Z,100914.41
2019-03-25T14:01:40.180Z,100920.89
2019-03-25T14:04:08.731Z,100923.09
2019-03-25T14:06:37.451Z,100918.03
2019-03-25T14:09:07.585Z,100916.42
2019-03-25T14:11:36.254Z,100919.69
2019-03-25T14:14:04.817Z,100928.16
2019-03-25T14:16:33.527Z,100938.68
2019-03-25T14:19:02.312Z,100929.11
2019-03-25T14:21:31.002Z,100930.50
2019-03-25T14:23:59.648Z,100931.05
2019-03-25T14:26:28.267Z,100931.19
2019-03-25T14:28:56.809Z,100935.94
2019-03-25T14:31:25.637Z,100935.08
2019-03-25T14:33:54.220Z,100943.30
2019-03-25T14:36:23.011Z,100944.56
2019-03-25T14:38:51.593Z,100947.64
2019-03-25T14:41:20.285Z,100950.66
2019-03-25T14:43:48.934Z,100947.08
2019-03-25T14:46:17.753Z,100950.38
2019-03-25T14:48:46.438Z,100947.11
2019-03-25T14:51:15.126Z,100947.66
2019-03-25T14:53:45.270Z,100950.10
2019-03-25T14:56:14.067Z,100954.00
2019-03-25T14:58:42.718Z,100957.53
2019-03-25T15:01:11.404Z,100965.19
2019-03-25T15:03:40.092Z,100975.50
2019-03-25T15:06:08.773Z,100963.95
2019-03-25T15:08:37.357Z,100969.73
2019-03-25T15:11:06.149Z,100974.30
2019-03-25T15:13:35.039Z,100978.14
2019-03-25T15:16:03.826Z,100989.24
2019-03-25T15:18:32.408Z,100983.41
2019-03-25T15:21:01.095Z,100990.30
2019-03-25T15:23:29.782Z,100982.39
2019-03-25T15:25:58.471Z,100990.81
2019-03-25T15:28:29.097Z,100993.20
2019-03-25T15:30:57.780Z,100997.84
2019-03-25T15:33:26.370Z,101006.94
2019-03-25T15:35:55.062Z,101004.44
2019-03-25T15:38:25.462Z,101013.35
2019-03-25T15:40:54.059Z,101008.19
2019-03-25T15:43:22.642Z,101018.88
2019-03-25T15:45:52.208Z,101012.87
2019-03-25T15:48:20.896Z,101021.85
2019-03-25T15:50:50.133Z,101026.26
2019-03-25T15:53:18.817Z,101030.07
2019-03-25T15:55:47.504Z,101034.64
2019-03-25T15:58:25.606Z,101044.94
2019-03-25T16:00:48.265Z,101044.44
2019-03-25T16:03:16.839Z,101047.06
2019-03-25T16:05:45.523Z,101048.39
2019-03-25T16:08:14.110Z,101057.00
2019-03-25T16:10:42.795Z,101055.48
2019-03-25T16:13:11.439Z,101058.69
2019-03-25T16:15:42.324Z,101069.59
2019-03-25T16:18:12.973Z,101068.30
2019-03-25T16:20:41.634Z,101071.59
2019-03-25T16:23:10.320Z,101076.29
2019-03-25T16:25:39.005Z,101083.88
2019-03-25T16:28:07.689Z,101084.45
2019-03-25T16:30:36.274Z,101095.30
2019-03-25T16:33:04.961Z,101090.09
2019-03-25T16:35:33.547Z,101097.13
2019-03-25T16:38:02.335Z,101098.45
2019-03-25T16:40:31.125Z,101099.20
2019-03-25T16:42:59.803Z,101102.01
2019-03-25T16:45:28.391Z,101103.09
2019-03-25T16:47:57.143Z,101106.77
2019-03-25T16:50:25.862Z,101112.67
2019-03-25T16:52:54.551Z,101110.14
2019-03-25T16:55:23.236Z,101119.59
2019-03-25T16:57:52.026Z,101121.19
2019-03-25T17:00:27.203Z,101124.45
2019-03-25T17:02:51.036Z,101122.08
2019-03-25T17:05:19.684Z,101132.09
2019-03-25T17:07:48.418Z,101133.92
2019-03-25T17:10:17.189Z,101140.95
2019-03-25T17:12:45.986Z,101145.05
2019-03-25T17:15:15.084Z,101156.53
2019-03-25T17:17:43.762Z,101156.61
2019-03-25T17:20:12.760Z,101160.88
2019-03-25T17:22:41.547Z,101162.94
2019-03-25T17:25:10.949Z,101172.11
2019-03-25T17:27:39.736Z,101180.69
2019-03-25T17:30:14.162Z,101178.06
2019-03-25T17:32:42.944Z,101183.27
2019-03-25T17:35:12.030Z,101187.89
2019-03-25T17:37:41.020Z,101193.50
2019-03-25T17:40:10.320Z,101196.93
2019-03-25T17:42:39.120Z,101200.72
2019-03-25T17:45:09.243Z,101208.88
2019-03-25T17:47:38.038Z,101206.49
2019-03-25T17:50:09.939Z,101213.59
2019-03-25T17:52:38.572Z,101226.26
2019-03-25T17:55:07.773Z,101237.67
2019-03-25T17:57:36.462Z,101239.60
2019-03-25T18:00:10.466Z,101242.37
2019-03-25T18:02:39.258Z,101244.09
2019-03-25T18:05:09.170Z,101255.81
2019-03-25T18:07:37.958Z,101257.05
2019-03-25T18:10:08.316Z,101266.89
2019-03-25T18:12:39.028Z,101271.45
2019-03-25T18:15:11.207Z,101280.48
2019-03-25T18:17:39.870Z,101290.94
2019-03-25T18:20:19.043Z,101295.95
2019-03-25T18:22:49.642Z,101309.95
2019-03-25T18:25:18.417Z,101307.30
2019-03-25T18:27:51.945Z,101310.11
2019-03-25T18:30:33.309Z,101315.08
2019-03-25T18:33:02.432Z,101326.22
2019-03-25T18:35:31.298Z,101334.77
2019-03-25T18:38:00.185Z,101339.16
2019-03-25T18:40:29.079Z,101349.28
2019-03-25T18:42:58.077Z,101351.25
2019-03-25T18:45:26.962Z,101350.27
2019-03-25T18:47:55.854Z,101362.47
2019-03-25T18:50:24.751Z,101364.95
2019-03-25T18:52:56.768Z,101361.95
2019-03-25T18:55:25.291Z,101371.63
2019-03-25T18:57:54.281Z,101374.56
2019-03-25T19:00:32.695Z,101378.59
2019-03-25T19:03:05.606Z,101373.52
2019-03-25T19:05:34.600Z,101380.76
2019-03-25T19:08:05.207Z,101388.38
2019-03-25T19:10:35.529Z,101383.47
2019-03-25T19:13:04.554Z,101392.79
2019-03-25T19:15:33.435Z,101395.11
2019-03-25T19:18:02.210Z,101392.70
2019-03-25T19:20:31.219Z,101399.11
2019-03-25T19:23:00.198Z,101401.91
2019-03-25T19:25:29.200Z,101398.80
2019-03-25T19:27:58.079Z,101422.16
2019-03-25T19:30:26.963Z,101424.89
2019-03-25T19:32:55.950Z,101426.06
2019-03-25T19:35:24.859Z,101429.28
2019-03-25T19:37:53.766Z,101430.59
2019-03-25T19:40:22.745Z,101433.80
2019-03-25T19:42:51.614Z,101439.81
2019-03-25T19:45:20.646Z,101442.66
2019-03-25T19:47:49.498Z,101451.31
2019-03-25T19:50:18.644Z,101453.93
2019-03-25T19:52:47.688Z,101459.20
2019-03-25T19:55:16.724Z,101464.44
2019-03-25T19:57:45.590Z,101474.88
2019-03-25T20:00:15.265Z,101477.97
2019-03-25T20:02:44.179Z,101478.50
2019-03-25T20:05:13.278Z,101479.33
2019-03-25T20:07:42.157Z,101480.43
2019-03-25T20:10:16.907Z,101483.87
2019-03-25T20:12:46.493Z,101486.47
2019-03-25T20:15:15.414Z,101494.86
2019-03-25T20:17:44.294Z,101501.95
2019-03-25T20:20:13.607Z,101506.62
2019-03-25T20:22:42.590Z,101512.94
2019-03-25T20:25:11.572Z,101520.75
2019-03-25T20:27:40.489Z,101521.34
2019-03-25T20:30:12.933Z,101529.15
2019-03-25T20:32:41.855Z,101528.78
2019-03-25T20:35:10.803Z,101534.51
2019-03-25T20:37:39.619Z,101537.28
2019-03-25T20:40:08.581Z,101537.20
2019-03-25T20:42:37.288Z,101539.21
2019-03-25T20:45:07.619Z,101536.37
2019-03-25T20:47:36.376Z,101552.89
2019-03-25T20:50:06.598Z,101551.89
2019-03-25T20:52:35.367Z,101560.73
2019-03-25T20:55:05.825Z,101561.78
2019-03-25T20:57:34.511Z,101564.89
2019-03-25T21:00:04.106Z,101563.66
2019-03-25T21:02:44.493Z,101566.83
2019-03-25T21:05:03.031Z,101573.19
2019-03-25T21:07:31.804Z,101581.89
2019-03-25T21:10:00.610Z,101573.31
2019-03-25T21:12:29.216Z,101584.67
2019-03-25T21:14:57.838Z,101585.78
2019-03-25T21:17:26.544Z,101594.56
2019-03-25T21:19:55.126Z,101599.06
2019-03-25T21:22:23.835Z,101605.23
2019-03-25T21:24:52.397Z,101613.02
2019-03-25T21:27:21.082Z,101625.08
2019-03-25T21:29:49.669Z,101630.75
2019-03-25T21:32:18.433Z,101634.60
2019-03-25T21:34:47.244Z,101634.45
2019-03-25T21:37:16.066Z,101643.95
2019-03-25T21:39:44.757Z,101656.17
2019-03-25T21:42:13.588Z,101659.94
2019-03-25T21:44:42.217Z,101660.63
2019-03-25T21:47:10.874Z,101661.54
2019-03-25T21:49:39.568Z,101659.17
2019-03-25T21:52:08.300Z,101660.53
2019-03-25T21:54:37.160Z,101659.84
2019-03-25T21:57:05.892Z,101654.64
2019-03-25T21:59:34.530Z,101656.77
2019-03-25T22:02:03.194Z,101658.70
2019-03-25T22:04:31.881Z,101653.96
2019-03-25T22:07:00.672Z,101659.33
2019-03-25T22:09:29.236Z,101665.05
2019-03-25T22:11:58.041Z,101664.66
2019-03-25T22:14:26.726Z,101670.80
2019-03-25T22:16:55.513Z,101668.19
2019-03-25T22:19:24.200Z,101672.19
2019-03-25T22:21:54.413Z,101682.42
2019-03-25T22:24:23.082Z,101687.16
2019-03-25T22:26:51.794Z,101695.22
2019-03-25T22:29:20.480Z,101695.91
2019-03-25T22:31:49.164Z,101694.09
2019-03-25T22:34:17.858Z,101699.45
2019-03-25T22:36:46.535Z,101703.78
2019-03-25T22:39:15.145Z,101701.05
2019-03-25T22:41:43.804Z,101699.59
2019-03-25T22:44:12.490Z,101706.03
2019-03-25T22:46:41.176Z,101704.95
2019-03-25T22:49:10.059Z,101717.52
2019-03-25T22:51:38.645Z,101714.16
2019-03-25T22:54:07.335Z,101717.04
2019-03-25T22:56:36.020Z,101716.38
2019-03-25T22:59:04.911Z,101719.61
2019-03-25T23:01:33.599Z,101720.09
2019-03-25T23:04:02.290Z,101714.33
2019-03-25T23:06:30.868Z,101716.03
2019-03-25T23:08:59.560Z,101718.85
2019-03-25T23:11:28.240Z,101726.53
2019-03-25T23:13:56.924Z,101733.41
2019-03-25T23:16:25.509Z,101736.53
2019-03-25T23:18:54.193Z,101742.41
2019-03-25T23:21:22.878Z,101745.78
2019-03-25T23:23:51.535Z,101761.63
2019-03-25T23:26:20.217Z,101769.37
2019-03-25T23:28:49.012Z,101774.27
2019-03-25T23:31:17.621Z,101784.41
2019-03-25T23:33:52.068Z,101780.72
2019-03-25T23:36:16.630Z,101783.69
2019-03-25T23:38:45.421Z,101791.28
2019-03-25T23:41:14.090Z,101788.98
2019-03-25T23:43:42.825Z,101779.45
2019-03-25T23:46:12.500Z,101784.41
2019-03-25T23:48:41.186Z,101793.48
2019-03-25T23:51:09.757Z,101797.98
2019-03-25T23:53:38.559Z,101792.28
2019-03-25T23:56:07.242Z,101802.62
2019-03-25T23:58:35.928Z,101796.11
